createdAt,value
2019-04-23T00:02:29.774Z,80.50
2019-04-23T00:04:59.554Z,80.40
2019-04-23T00:10:12.363Z,80.20
2019-04-23T00:12:45.212Z,80.50
2019-04-23T00:15:09.249Z,80.40
2019-04-23T00:20:09.577Z,80.70
2019-04-23T00:23:00.220Z,81.50
2019-04-23T00:26:25.602Z,80.60
2019-04-23T00:31:13.666Z,81.10
2019-04-23T00:33:34.534Z,81.30
2019-04-23T00:36:10.651Z,81.10
2019-04-23T00:38:45.490Z,81.30
2019-04-23T00:41:13.917Z,81.50
2019-04-23T00:43:42.887Z,81.20
2019-04-23T00:46:15.519Z,81.50
2019-04-23T00:51:13.843Z,81.60
2019-04-23T00:53:46.704Z,81.70
2019-04-23T00:56:32.424Z,81.80
2019-04-23T00:58:48.207Z,82.10
2019-04-23T01:01:19.229Z,82.30
2019-04-23T01:03:52.998Z,82.20
2019-04-23T01:06:24.138Z,82.60
2019-04-23T01:08:53.691Z,82.80
2019-04-23T01:14:08.160Z,83.30
2019-04-23T01:16:20.942Z,82.90
2019-04-23T01:19:24.841Z,83.10
2019-04-23T01:21:41.261Z,83.20
2019-04-23T01:24:40.815Z,84.00
2019-04-23T01:27:46.017Z,84.40
2019-04-23T01:30:10.063Z,84.00
2019-04-23T01:32:42.395Z,84.00
2019-04-23T01:37:56.260Z,85.20
2019-04-23T01:45:20.383Z,86.00
2019-04-23T01:50:20.409Z,86.90
2019-04-23T01:52:55.739Z,87.60
2019-04-23T01:55:21.170Z,87.50
2019-04-23T01:57:58.527Z,88.00
2019-04-23T02:00:24.159Z,88.00
2019-04-23T02:02:57.575Z,88.40
2019-04-23T02:10:49.385Z,89.40
2019-04-23T02:13:01.814Z,89.80
2019-04-23T02:15:31.987Z,89.70
2019-04-23T02:18:06.567Z,90.10
2019-04-23T02:20:37.412Z,90.60
2019-04-23T02:23:24.923Z,90.70
2019-04-23T02:28:38.856Z,90.90
2019-04-23T02:31:12.182Z,91.20
2019-04-23T02:33:38.411Z,91.30
2019-04-23T02:41:13.114Z,91.80
2019-04-23T02:43:20.190Z,92.00
2019-04-23T02:46:05.514Z,92.50
2019-04-23T02:51:04.784Z,92.60
2019-04-23T02:53:44.654Z,92.70
2019-04-23T02:56:18.236Z,92.80
2019-04-23T02:58:43.984Z,92.60
2019-04-23T03:01:21.993Z,93.00
2019-04-23T03:08:49.299Z,93.00
2019-04-23T03:13:53.599Z,92.90
2019-04-23T03:19:04.988Z,93.20
2019-04-23T03:21:53.789Z,93.10
2019-04-23T03:24:36.357Z,93.50
2019-04-23T03:37:20.346Z,94.10
2019-04-23T03:39:50.444Z,94.50
2019-04-23T03:42:17.728Z,94.30
2019-04-23T03:44:49.209Z,94.60
2019-04-23T03:47:11.499Z,94.50
2019-04-23T03:49:41.229Z,94.60
2019-04-23T03:59:46.768Z,95.10
2019-04-23T04:04:39.061Z,95.20
2019-04-23T04:09:49.900Z,95.50
2019-04-23T04:12:25.468Z,95.20
2019-04-23T04:15:07.212Z,95.20
2019-04-23T04:17:20.131Z,95.30
2019-04-23T04:22:26.882Z,95.20
2019-04-23T04:24:48.964Z,95.20
2019-04-23T04:30:10.580Z,95.00
2019-04-23T04:32:46.883Z,95.50
2019-04-23T04:37:40.519Z,95.10
2019-04-23T04:41:05.606Z,95.20
2019-04-23T04:42:33.271Z,95.10
2019-04-23T04:55:03.215Z,95.50
2019-04-23T04:57:56.719Z,95.80
2019-04-23T05:00:13.327Z,95.60
2019-04-23T05:03:01.172Z,95.60
2019-04-23T05:05:33.025Z,95.90
2019-04-23T05:07:40.250Z,95.80
2019-04-23T05:10:21.638Z,95.80
2019-04-23T05:12:40.986Z,95.80
2019-04-23T05:15:23.502Z,95.70
2019-04-23T05:18:08.289Z,95.70
2019-04-23T05:20:37.229Z,95.50
2019-04-23T05:23:22.854Z,95.80
2019-04-23T05:25:33.110Z,95.50
2019-04-23T05:28:07.979Z,95.40
2019-04-23T05:30:39.481Z,95.60
2019-04-23T05:33:11.658Z,96.00
2019-04-23T05:36:02.142Z,95.60
2019-04-23T05:38:18.334Z,95.70
2019-04-23T05:40:45.241Z,95.50
2019-04-23T05:43:15.029Z,95.60
2019-04-23T05:45:40.203Z,95.20
2019-04-23T05:50:54.058Z,95.30
2019-04-23T05:55:47.619Z,95.10
2019-04-23T05:58:23.255Z,95.10
2019-04-23T06:00:59.626Z,95.10
2019-04-23T06:03:22.720Z,95.00
2019-04-23T06:05:56.532Z,95.00
2019-04-23T06:11:02.315Z,95.00
2019-04-23T06:15:59.671Z,94.70
2019-04-23T06:18:31.949Z,94.30
2019-04-23T06:21:05.595Z,94.40
2019-04-23T06:23:38.220Z,94.40
2019-04-23T06:26:19.867Z,94.50
2019-04-23T06:28:31.649Z,94.70
2019-04-23T06:31:09.640Z,94.60
2019-04-23T06:38:44.942Z,93.90
2019-04-23T06:44:01.980Z,93.50
2019-04-23T06:46:28.941Z,93.30
2019-04-23T06:48:57.052Z,93.20
2019-04-23T06:53:57.834Z,93.20
2019-04-23T06:56:39.045Z,93.10
2019-04-23T06:59:00.943Z,92.90
2019-04-23T07:01:27.714Z,92.80
2019-04-23T07:04:05.460Z,92.60
2019-04-23T07:11:38.675Z,92.50
2019-04-23T07:13:58.313Z,92.60
2019-04-23T07:19:09.614Z,92.40
2019-04-23T07:21:37.318Z,92.20
2019-04-23T07:24:08.518Z,92.00
2019-04-23T07:26:40.463Z,91.70
2019-04-23T07:34:15.662Z,91.40
2019-04-23T07:36:58.865Z,91.30
2019-04-23T07:39:43.098Z,90.90
2019-04-23T07:45:02.482Z,90.10
2019-04-23T07:48:06.548Z,89.70
2019-04-23T07:50:41.349Z,89.70
2019-04-23T07:53:06.324Z,89.10
2019-04-23T07:55:41.118Z,88.70
2019-04-23T07:58:06.477Z,88.10
2019-04-23T08:00:44.379Z,87.90
2019-04-23T08:03:10.912Z,87.00
2019-04-23T08:08:07.508Z,85.80
2019-04-23T08:10:56.861Z,84.90
2019-04-23T08:13:16.405Z,83.40
2019-04-23T08:15:42.946Z,83.00
2019-04-23T08:23:25.699Z,82.80
2019-04-23T08:26:19.390Z,83.00
2019-04-23T08:29:01.054Z,81.40
2019-04-23T08:31:15.152Z,79.60
2019-04-23T08:33:53.005Z,78.50
2019-04-23T08:36:20.098Z,77.70
2019-04-23T08:38:44.675Z,77.60
2019-04-23T08:43:57.340Z,76.00
2019-04-23T08:46:52.044Z,75.10
2019-04-23T08:49:22.237Z,75.60
2019-04-23T08:54:27.958Z,72.80
2019-04-23T08:56:48.574Z,71.00
2019-04-23T08:59:24.945Z,72.10
2019-04-23T09:01:59.418Z,73.50
2019-04-23T09:04:18.555Z,73.30
2019-04-23T09:06:53.072Z,70.40
2019-04-23T09:09:20.237Z,65.70
2019-04-23T09:11:56.412Z,58.80
2019-04-23T09:14:10.265Z,53.60
2019-04-23T09:16:58.400Z,47.90
2019-04-23T09:19:42.912Z,47.10
2019-04-23T09:22:04.131Z,42.30
2019-04-23T09:24:27.600Z,37.20
2019-04-23T09:26:58.739Z,36.00
2019-04-23T09:29:41.145Z,37.20
2019-04-23T09:34:58.691Z,32.60
2019-04-23T09:37:45.344Z,32.00
2019-04-23T09:41:03.128Z,30.00
2019-04-23T09:43:38.234Z,29.90
2019-04-23T09:51:29.922Z,26.80
2019-04-23T09:54:04.309Z,27.50
2019-04-23T09:56:35.861Z,28.90
2019-04-23T09:59:08.959Z,27.90
2019-04-23T10:01:41.340Z,27.60
2019-04-23T10:03:53.330Z,27.60
2019-04-23T10:06:18.216Z,28.80
2019-04-23T10:08:47.427Z,30.70
2019-04-23T10:11:13.817Z,31.70
2019-04-23T10:13:45.026Z,29.70
2019-04-23T10:16:17.220Z,28.60
2019-04-23T10:18:46.811Z,27.60
2019-04-23T10:21:17.453Z,26.70
2019-04-23T10:23:47.506Z,26.60
2019-04-23T10:26:16.963Z,26.50
2019-04-23T10:28:52.039Z,28.00
2019-04-23T10:31:22.875Z,30.80
2019-04-23T10:33:52.488Z,34.40
2019-04-23T10:36:25.203Z,37.50
2019-04-23T10:39:00.474Z,38.10
2019-04-23T10:41:25.683Z,39.90
2019-04-23T10:44:00.774Z,41.70
2019-04-23T10:47:02.741Z,42.50
2019-04-23T10:50:07.424Z,43.00
2019-04-23T10:52:33.742Z,43.50
2019-04-23T10:55:00.799Z,44.00
2019-04-23T10:57:44.090Z,45.00
2019-04-23T10:59:58.541Z,45.70
2019-04-23T11:02:39.077Z,46.20
2019-04-23T11:05:29.108Z,46.70
2019-04-23T11:07:42.038Z,47.10
2019-04-23T11:10:08.742Z,47.60
2019-04-23T11:12:48.913Z,48.20
2019-04-23T11:15:55.708Z,48.20
2019-04-23T11:18:10.603Z,48.60
2019-04-23T11:20:34.131Z,49.20
2019-04-23T11:23:08.969Z,48.90
2019-04-23T11:25:35.993Z,49.20
2019-04-23T11:28:13.550Z,49.30
2019-04-23T11:36:18.713Z,48.50
2019-04-23T11:38:44.106Z,49.00
2019-04-23T11:40:41.736Z,49.60
2019-04-23T11:43:20.510Z,49.80
2019-04-23T11:45:59.192Z,49.90
2019-04-23T11:51:39.468Z,49.70
2019-04-23T11:53:31.984Z,49.30
2019-04-23T11:55:53.354Z,48.80
2019-04-23T11:58:34.083Z,48.60
2019-04-23T12:01:23.076Z,49.40
2019-04-23T12:04:02.774Z,48.70
2019-04-23T12:06:46.003Z,48.60
2019-04-23T12:09:45.144Z,48.50
2019-04-23T12:14:48.087Z,48.40
2019-04-23T12:17:29.456Z,48.50
2019-04-23T12:22:22.273Z,49.80
2019-04-23T12:30:01.242Z,50.30
2019-04-23T12:37:40.677Z,50.10
2019-04-23T12:42:55.536Z,50.60
2019-04-23T12:47:58.439Z,50.10
2019-04-23T12:50:41.682Z,50.00
2019-04-23T12:55:22.367Z,49.40
2019-04-23T13:00:27.122Z,50.00
2019-04-23T13:02:48.574Z,50.00
2019-04-23T13:08:05.719Z,50.40
2019-04-23T13:10:30.154Z,50.50
2019-04-23T13:13:01.908Z,50.80
2019-04-23T13:15:30.846Z,51.00
2019-04-23T13:25:47.356Z,52.10
2019-04-23T13:38:27.250Z,52.50
2019-04-23T13:48:24.904Z,53.30
2019-04-23T13:50:59.687Z,53.10
2019-04-23T13:56:02.149Z,53.20
2019-04-23T14:01:13.988Z,53.10
2019-04-23T14:06:18.181Z,53.10
2019-04-23T14:11:21.568Z,52.70
2019-04-23T14:13:49.718Z,52.30
2019-04-23T14:21:20.361Z,52.40
2019-04-23T14:24:03.453Z,52.50
2019-04-23T14:28:44.841Z,52.60
2019-04-23T14:31:23.384Z,52.90
2019-04-23T14:34:00.185Z,53.10
2019-04-23T14:36:27.003Z,53.20
2019-04-23T14:39:05.716Z,53.30
2019-04-23T14:44:11.438Z,54.00
2019-04-23T14:49:16.496Z,54.00
2019-04-23T14:51:58.593Z,54.00
2019-04-23T14:54:24.913Z,54.40
2019-04-23T14:56:51.531Z,54.50
2019-04-23T14:59:10.710Z,54.70
2019-04-23T15:01:48.978Z,54.90
2019-04-23T15:04:19.156Z,54.90
2019-04-23T15:09:27.628Z,55.20
2019-04-23T15:11:53.113Z,55.20
2019-04-23T15:14:46.404Z,55.50
2019-04-23T15:17:01.618Z,55.70
2019-04-23T15:19:40.135Z,56.40
2019-04-23T15:22:07.792Z,56.40
2019-04-23T15:29:24.602Z,56.10
2019-04-23T15:32:14.979Z,56.30
2019-04-23T15:34:45.471Z,56.40
2019-04-23T15:37:26.246Z,56.60
2019-04-23T15:39:46.489Z,56.60
2019-04-23T15:42:23.089Z,56.60
2019-04-23T15:44:48.817Z,56.90
2019-04-23T15:47:20.221Z,57.20
2019-04-23T15:49:51.368Z,57.70
2019-04-23T15:52:27.321Z,57.80
2019-04-23T15:57:32.480Z,58.30
2019-04-23T16:01:54.314Z,58.70
2019-04-23T16:04:24.139Z,58.90
2019-04-23T16:06:54.003Z,59.50
2019-04-23T16:09:54.136Z,59.10
2019-04-23T16:12:22.263Z,59.20
2019-04-23T16:15:07.862Z,60.40
2019-04-23T16:17:28.963Z,59.80
2019-04-23T16:20:27.661Z,60.10
2019-04-23T16:22:39.667Z,60.10
2019-04-23T16:25:12.740Z,60.30
2019-04-23T16:27:50.404Z,60.70
2019-04-23T16:35:43.367Z,61.40
2019-04-23T16:38:18.512Z,61.50
2019-04-23T16:40:37.863Z,61.90
2019-04-23T16:43:08.626Z,62.20
2019-04-23T16:45:41.030Z,62.20
2019-04-23T16:48:37.565Z,62.30
2019-04-23T16:53:19.675Z,62.70
2019-04-23T16:56:05.522Z,62.70
2019-04-23T16:58:25.214Z,63.00
2019-04-23T17:05:55.040Z,63.00
2019-04-23T17:11:00.103Z,62.90
2019-04-23T17:13:21.114Z,63.00
2019-04-23T17:16:00.247Z,63.20
2019-04-23T17:18:25.945Z,63.60
2019-04-23T17:23:34.443Z,63.70
2019-04-23T17:25:59.211Z,63.80
2019-04-23T17:31:28.085Z,63.60
2019-04-23T17:33:43.475Z,63.70
2019-04-23T17:36:24.834Z,64.10
2019-04-23T17:39:02.788Z,64.70
2019-04-23T17:41:38.810Z,64.90
2019-04-23T17:44:18.310Z,65.60
2019-04-23T17:46:43.145Z,66.20
2019-04-23T17:51:31.195Z,66.70
2019-04-23T17:54:45.004Z,66.80
2019-04-23T17:59:12.043Z,66.70
2019-04-23T18:01:47.334Z,67.00
2019-04-23T18:04:36.266Z,66.70
2019-04-23T18:09:25.547Z,67.10
2019-04-23T18:11:52.277Z,67.20
2019-04-23T18:14:34.725Z,67.40
2019-04-23T18:19:17.528Z,67.20
2019-04-23T18:22:18.989Z,67.20
2019-04-23T18:25:05.755Z,67.40
2019-04-23T18:27:33.752Z,67.50
2019-04-23T18:30:15.662Z,67.80
2019-04-23T18:35:42.621Z,67.70
2019-04-23T18:38:07.362Z,67.80
2019-04-23T18:40:41.973Z,68.40
2019-04-23T18:45:45.319Z,68.50
2019-04-23T18:48:40.663Z,68.70
2019-04-23T18:50:59.826Z,69.20
2019-04-23T18:53:40.833Z,69.60
2019-04-23T18:58:47.497Z,70.30
2019-04-23T19:06:37.705Z,71.00
2019-04-23T19:15:09.523Z,71.80
2019-04-23T19:20:01.077Z,72.20
2019-04-23T19:22:51.589Z,72.80
2019-04-23T19:25:11.065Z,74.00
2019-04-23T19:27:38.628Z,73.60
2019-04-23T19:30:13.571Z,73.90
2019-04-23T19:32:49.222Z,74.40
2019-04-23T19:35:23.756Z,74.50
2019-04-23T19:37:55.914Z,75.10
2019-04-23T19:40:15.258Z,75.80
2019-04-23T19:42:50.764Z,76.30
2019-04-23T19:45:20.578Z,76.10
2019-04-23T19:48:03.417Z,76.90
2019-04-23T19:50:28.542Z,77.50
2019-04-23T19:55:24.120Z,78.50
2019-04-23T20:00:28.849Z,79.40
2019-04-23T20:03:12.508Z,80.10
2019-04-23T20:05:35.610Z,80.40
2019-04-23T20:08:04.406Z,80.90
2019-04-23T20:10:33.230Z,81.60
2019-04-23T20:12:59.153Z,82.00
2019-04-23T20:15:40.930Z,82.00
2019-04-23T20:18:22.306Z,82.30
2019-04-23T20:20:48.041Z,83.30
2019-04-23T20:23:36.244Z,83.50
2019-04-23T20:26:07.361Z,84.10
2019-04-23T20:28:31.129Z,84.70
2019-04-23T20:31:13.983Z,85.50
2019-04-23T20:36:46.557Z,86.70
2019-04-23T20:39:17.384Z,87.70
2019-04-23T20:47:06.790Z,90.10
2019-04-23T20:49:42.274Z,90.50
2019-04-23T20:52:04.782Z,90.90
2019-04-23T20:54:42.312Z,91.60
2019-04-23T20:57:31.805Z,91.80
2019-04-23T21:02:58.862Z,93.10
2019-04-23T21:07:52.604Z,93.80
2019-04-23T21:10:27.388Z,93.70
2019-04-23T21:12:57.906Z,94.00
2019-04-23T21:15:10.369Z,94.00
2019-04-23T21:20:16.131Z,94.20
2019-04-23T21:22:51.037Z,93.90
2019-04-23T21:25:09.453Z,94.10
2019-04-23T21:27:57.473Z,94.00
2019-04-23T21:30:55.379Z,94.00
2019-04-23T21:33:13.462Z,93.80
2019-04-23T21:36:18.936Z,93.60
2019-04-23T21:39:12.154Z,93.60
2019-04-23T21:46:47.929Z,92.90
2019-04-23T21:51:49.314Z,92.80
2019-04-23T21:54:06.170Z,92.80
2019-04-23T21:56:47.210Z,92.80
2019-04-23T22:04:41.499Z,92.50
2019-04-23T22:06:53.000Z,92.50
2019-04-23T22:09:26.914Z,92.40
2019-04-23T22:12:08.934Z,92.50
2019-04-23T22:14:26.854Z,92.40
2019-04-23T22:17:06.155Z,92.40
2019-04-23T22:19:44.891Z,92.40
2019-04-23T22:22:12.639Z,92.30
2019-04-23T22:24:25.529Z,92.20
2019-04-23T22:26:58.378Z,92.20
2019-04-23T22:29:44.648Z,92.10
2019-04-23T22:32:02.575Z,92.10
2019-04-23T22:34:42.817Z,92.00
2019-04-23T22:37:10.899Z,92.00
2019-04-23T22:42:35.847Z,92.00
2019-04-23T22:44:57.451Z,92.00
2019-04-23T22:47:06.069Z,91.90
2019-04-23T22:52:21.355Z,92.00
2019-04-23T22:57:44.633Z,92.20
2019-04-23T23:00:13.000Z,92.20
2019-04-23T23:03:09.786Z,92.10
2019-04-23T23:10:36.672Z,92.10
2019-04-23T23:13:15.067Z,92.20
2019-04-23T23:15:44.996Z,92.30
2019-04-23T23:18:14.660Z,92.20
2019-04-23T23:20:47.917Z,92.20
2019-04-23T23:23:22.686Z,92.30
2019-04-23T23:25:46.088Z,92.30
2019-04-23T23:28:20.059Z,92.40
2019-04-23T23:30:57.977Z,92.50
2019-04-23T23:33:35.930Z,92.50
2019-04-23T23:35:54.824Z,92.40
2019-04-23T23:38:25.791Z,92.70
2019-04-23T23:40:57.157Z,92.50
2019-04-23T23:43:27.167Z,92.50
2019-04-23T23:46:03.562Z,92.50
2019-04-23T23:48:23.442Z,92.60
2019-04-23T23:51:00.663Z,92.60
2019-04-23T23:53:32.907Z,92.60
2019-04-23T23:56:05.426Z,92.70
2019-04-23T23:58:43.795Z,92.60
